sensor_id;sensor_type;location;lat;lon;timestamp;P1;durP1;ratioP1;P2;durP2;ratioP2
20671;SDS011;10495;50.922;4.760;2023-09-19T00:00:41;11.80;;;1.97;;
20671;SDS011;10495;50.922;4.760;2023-09-19T00:03:09;6.83;;;1.90;;
20671;SDS011;10495;50.922;4.760;2023-09-19T00:05:35;8.70;;;2.23;;
20671;SDS011;10495;50.922;4.760;2023-09-19T00:08:03;10.03;;;2.27;;
20671;SDS011;10495;50.922;4.760;2023-09-19T00:10:29;6.63;;;2.10;;
20671;SDS011;10495;50.922;4.760;2023-09-19T00:12:56;7.47;;;2.20;;
20671;SDS011;10495;50.922;4.760;2023-09-19T00:15:24;8.40;;;1.90;;
20671;SDS011;10495;50.922;4.760;2023-09-19T00:17:56;13.40;;;2.40;;
20671;SDS011;10495;50.922;4.760;2023-09-19T00:20:22;5.13;;;2.00;;
20671;SDS011;10495;50.922;4.760;2023-09-19T00:22:49;9.07;;;2.40;;
20671;SDS011;10495;50.922;4.760;2023-09-19T00:25:18;8.07;;;2.00;;
20671;SDS011;10495;50.922;4.760;2023-09-19T00:27:47;14.13;;;2.90;;
20671;SDS011;10495;50.922;4.760;2023-09-19T00:30:15;6.57;;;1.60;;
20671;SDS011;10495;50.922;4.760;2023-09-19T00:32:42;7.07;;;1.53;;
20671;SDS011;10495;50.922;4.760;2023-09-19T00:35:08;14.13;;;3.23;;
20671;SDS011;10495;50.922;4.760;2023-09-19T00:37:37;5.00;;;1.90;;
20671;SDS011;10495;50.922;4.760;2023-09-19T00:40:04;7.73;;;2.17;;
20671;SDS011;10495;50.922;4.760;2023-09-19T00:42:32;5.80;;;2.20;;
20671;SDS011;10495;50.922;4.760;2023-09-19T00:44:58;6.20;;;1.90;;
20671;SDS011;10495;50.922;4.760;2023-09-19T00:47:28;7.93;;;1.90;;
20671;SDS011;10495;50.922;4.760;2023-09-19T00:49:54;7.23;;;1.80;;
20671;SDS011;10495;50.922;4.760;2023-09-19T00:52:21;10.20;;;1.80;;
20671;SDS011;10495;50.922;4.760;2023-09-19T00:54:48;9.27;;;2.20;;
20671;SDS011;10495;50.922;4.760;2023-09-19T00:57:15;9.93;;;2.23;;
20671;SDS011;10495;50.922;4.760;2023-09-19T00:59:44;6.53;;;2.03;;
20671;SDS011;10495;50.922;4.760;2023-09-19T01:02:10;7.80;;;1.97;;
20671;SDS011;10495;50.922;4.760;2023-09-19T01:04:39;9.57;;;2.40;;
20671;SDS011;10495;50.922;4.760;2023-09-19T01:07:05;7.80;;;2.37;;
20671;SDS011;10495;50.922;4.760;2023-09-19T01:09:33;6.50;;;2.10;;
20671;SDS011;10495;50.922;4.760;2023-09-19T01:12:01;8.17;;;2.17;;
20671;SDS011;10495;50.922;4.760;2023-09-19T01:14:42;12.27;;;1.90;;
20671;SDS011;10495;50.922;4.760;2023-09-19T01:17:27;8.30;;;2.00;;
20671;SDS011;10495;50.922;4.760;2023-09-19T01:31:06;8.90;;;2.00;;
20671;SDS011;10495;50.922;4.760;2023-09-19T01:36:30;7.77;;;1.67;;
20671;SDS011;10495;50.922;4.760;2023-09-19T01:39:04;8.47;;;2.30;;
20671;SDS011;10495;50.922;4.760;2023-09-19T01:47:27;6.77;;;2.20;;
20671;SDS011;10495;50.922;4.760;2023-09-19T01:50:32;7.80;;;1.80;;
20671;SDS011;10495;50.922;4.760;2023-09-19T01:53:07;6.87;;;2.10;;
20671;SDS011;10495;50.922;4.760;2023-09-19T01:55:46;7.43;;;1.87;;
20671;SDS011;10495;50.922;4.760;2023-09-19T01:58:16;8.73;;;2.47;;
20671;SDS011;10495;50.922;4.760;2023-09-19T02:00:43;9.10;;;2.00;;
20671;SDS011;10495;50.922;4.760;2023-09-19T02:03:11;4.50;;;1.83;;
20671;SDS011;10495;50.922;4.760;2023-09-19T02:05:38;8.27;;;1.90;;
20671;SDS011;10495;50.922;4.760;2023-09-19T02:08:04;3.57;;;1.80;;
20671;SDS011;10495;50.922;4.760;2023-09-19T02:10:30;6.57;;;1.83;;
20671;SDS011;10495;50.922;4.760;2023-09-19T02:12:56;3.70;;;1.63;;
20671;SDS011;10495;50.922;4.760;2023-09-19T02:15:21;10.97;;;1.87;;
20671;SDS011;10495;50.922;4.760;2023-09-19T02:17:47;6.80;;;1.80;;
20671;SDS011;10495;50.922;4.760;2023-09-19T02:20:13;6.77;;;3.13;;
20671;SDS011;10495;50.922;4.760;2023-09-19T02:22:42;8.10;;;2.30;;
20671;SDS011;10495;50.922;4.760;2023-09-19T02:25:08;6.77;;;2.20;;
20671;SDS011;10495;50.922;4.760;2023-09-19T02:27:34;6.70;;;2.03;;
20671;SDS011;10495;50.922;4.760;2023-09-19T02:29:59;10.40;;;1.90;;
20671;SDS011;10495;50.922;4.760;2023-09-19T02:32:29;6.17;;;2.30;;
20671;SDS011;10495;50.922;4.760;2023-09-19T02:34:56;7.23;;;2.13;;
20671;SDS011;10495;50.922;4.760;2023-09-19T02:37:24;7.07;;;1.80;;
20671;SDS011;10495;50.922;4.760;2023-09-19T02:39:50;9.20;;;2.30;;
20671;SDS011;10495;50.922;4.760;2023-09-19T02:42:15;7.93;;;2.70;;
20671;SDS011;10495;50.922;4.760;2023-09-19T02:44:41;5.57;;;2.10;;
20671;SDS011;10495;50.922;4.760;2023-09-19T02:47:07;10.20;;;3.00;;
20671;SDS011;10495;50.922;4.760;2023-09-19T02:49:32;6.13;;;2.20;;
20671;SDS011;10495;50.922;4.760;2023-09-19T02:51:58;10.10;;;2.47;;
20671;SDS011;10495;50.922;4.760;2023-09-19T02:54:24;6.27;;;1.93;;
20671;SDS011;10495;50.922;4.760;2023-09-19T02:56:50;7.03;;;2.23;;
20671;SDS011;10495;50.922;4.760;2023-09-19T02:59:15;11.23;;;2.90;;
20671;SDS011;10495;50.922;4.760;2023-09-19T03:01:44;9.63;;;3.30;;
20671;SDS011;10495;50.922;4.760;2023-09-19T03:04:13;12.87;;;2.87;;
20671;SDS011;10495;50.922;4.760;2023-09-19T03:06:39;11.47;;;2.40;;
20671;SDS011;10495;50.922;4.760;2023-09-19T03:09:05;9.13;;;2.47;;
20671;SDS011;10495;50.922;4.760;2023-09-19T03:11:38;7.73;;;2.37;;
20671;SDS011;10495;50.922;4.760;2023-09-19T03:14:05;7.93;;;2.17;;
20671;SDS011;10495;50.922;4.760;2023-09-19T03:16:30;8.77;;;2.10;;
20671;SDS011;10495;50.922;4.760;2023-09-19T03:18:56;7.77;;;3.00;;
20671;SDS011;10495;50.922;4.760;2023-09-19T03:21:24;6.90;;;2.17;;
20671;SDS011;10495;50.922;4.760;2023-09-19T03:23:50;6.93;;;2.33;;
20671;SDS011;10495;50.922;4.760;2023-09-19T03:26:16;8.30;;;2.47;;
20671;SDS011;10495;50.922;4.760;2023-09-19T03:28:42;6.97;;;2.07;;
20671;SDS011;10495;50.922;4.760;2023-09-19T03:31:08;7.83;;;2.23;;
20671;SDS011;10495;50.922;4.760;2023-09-19T03:33:34;6.97;;;1.97;;
20671;SDS011;10495;50.922;4.760;2023-09-19T03:36:00;12.63;;;2.67;;
20671;SDS011;10495;50.922;4.760;2023-09-19T03:38:29;8.83;;;2.47;;
20671;SDS011;10495;50.922;4.760;2023-09-19T03:40:55;9.10;;;2.77;;
20671;SDS011;10495;50.922;4.760;2023-09-19T03:43:21;5.67;;;1.90;;
20671;SDS011;10495;50.922;4.760;2023-09-19T03:45:47;8.23;;;1.90;;
20671;SDS011;10495;50.922;4.760;2023-09-19T03:48:13;5.23;;;1.97;;
20671;SDS011;10495;50.922;4.760;2023-09-19T03:50:39;12.97;;;2.47;;
20671;SDS011;10495;50.922;4.760;2023-09-19T03:53:05;7.30;;;2.67;;
20671;SDS011;10495;50.922;4.760;2023-09-19T03:55:33;8.87;;;2.00;;
20671;SDS011;10495;50.922;4.760;2023-09-19T03:58:03;10.27;;;2.77;;
20671;SDS011;10495;50.922;4.760;2023-09-19T04:00:29;8.87;;;2.20;;
20671;SDS011;10495;50.922;4.760;2023-09-19T04:02:55;7.43;;;2.83;;
20671;SDS011;10495;50.922;4.760;2023-09-19T04:05:22;10.17;;;2.50;;
20671;SDS011;10495;50.922;4.760;2023-09-19T04:07:48;9.10;;;2.20;;
20671;SDS011;10495;50.922;4.760;2023-09-19T04:10:15;6.87;;;1.97;;
20671;SDS011;10495;50.922;4.760;2023-09-19T04:12:41;9.80;;;2.33;;
20671;SDS011;10495;50.922;4.760;2023-09-19T04:15:18;5.87;;;1.80;;
20671;SDS011;10495;50.922;4.760;2023-09-19T04:17:44;4.90;;;1.67;;
20671;SDS011;10495;50.922;4.760;2023-09-19T04:20:10;6.57;;;2.03;;
20671;SDS011;10495;50.922;4.760;2023-09-19T04:22:37;10.90;;;2.57;;
20671;SDS011;10495;50.922;4.760;2023-09-19T04:25:04;10.57;;;2.77;;
20671;SDS011;10495;50.922;4.760;2023-09-19T04:27:31;8.13;;;2.60;;
20671;SDS011;10495;50.922;4.760;2023-09-19T04:29:57;8.33;;;2.10;;
20671;SDS011;10495;50.922;4.760;2023-09-19T04:32:24;5.30;;;2.17;;
20671;SDS011;10495;50.922;4.760;2023-09-19T04:34:53;10.50;;;2.60;;
20671;SDS011;10495;50.922;4.760;2023-09-19T04:37:19;10.53;;;2.20;;
20671;SDS011;10495;50.922;4.760;2023-09-19T04:39:46;7.50;;;2.30;;
20671;SDS011;10495;50.922;4.760;2023-09-19T04:42:12;5.73;;;2.67;;
20671;SDS011;10495;50.922;4.760;2023-09-19T04:44:39;12.13;;;2.50;;
20671;SDS011;10495;50.922;4.760;2023-09-19T04:47:05;9.10;;;2.77;;
20671;SDS011;10495;50.922;4.760;2023-09-19T04:49:31;10.17;;;2.53;;
20671;SDS011;10495;50.922;4.760;2023-09-19T04:51:56;11.30;;;2.70;;
20671;SDS011;10495;50.922;4.760;2023-09-19T04:54:22;5.47;;;2.03;;
20671;SDS011;10495;50.922;4.760;2023-09-19T04:56:48;7.13;;;2.17;;
20671;SDS011;10495;50.922;4.760;2023-09-19T04:59:13;9.73;;;2.53;;
20671;SDS011;10495;50.922;4.760;2023-09-19T05:01:40;7.37;;;3.20;;
20671;SDS011;10495;50.922;4.760;2023-09-19T05:04:06;5.80;;;2.23;;
20671;SDS011;10495;50.922;4.760;2023-09-19T05:06:31;6.33;;;1.80;;
20671;SDS011;10495;50.922;4.760;2023-09-19T05:08:58;8.37;;;2.30;;
20671;SDS011;10495;50.922;4.760;2023-09-19T05:11:26;8.87;;;2.53;;
20671;SDS011;10495;50.922;4.760;2023-09-19T05:13:51;9.30;;;2.37;;
20671;SDS011;10495;50.922;4.760;2023-09-19T05:16:20;7.33;;;2.40;;
20671;SDS011;10495;50.922;4.760;2023-09-19T05:18:45;7.60;;;2.30;;
20671;SDS011;10495;50.922;4.760;2023-09-19T05:21:11;8.27;;;2.47;;
20671;SDS011;10495;50.922;4.760;2023-09-19T05:23:38;8.13;;;2.03;;
20671;SDS011;10495;50.922;4.760;2023-09-19T05:26:03;6.30;;;2.40;;
20671;SDS011;10495;50.922;4.760;2023-09-19T05:28:30;7.77;;;2.73;;
20671;SDS011;10495;50.922;4.760;2023-09-19T05:30:57;8.90;;;2.10;;
20671;SDS011;10495;50.922;4.760;2023-09-19T05:33:26;9.07;;;2.80;;
20671;SDS011;10495;50.922;4.760;2023-09-19T05:35:52;4.93;;;1.90;;
20671;SDS011;10495;50.922;4.760;2023-09-19T05:38:18;5.67;;;1.50;;
20671;SDS011;10495;50.922;4.760;2023-09-19T05:40:45;11.87;;;3.17;;
20671;SDS011;10495;50.922;4.760;2023-09-19T05:43:11;6.90;;;2.60;;
20671;SDS011;10495;50.922;4.760;2023-09-19T05:45:37;7.70;;;1.93;;
20671;SDS011;10495;50.922;4.760;2023-09-19T05:48:12;6.17;;;2.50;;
20671;SDS011;10495;50.922;4.760;2023-09-19T05:50:40;8.67;;;2.60;;
20671;SDS011;10495;50.922;4.760;2023-09-19T05:53:07;6.13;;;1.77;;
20671;SDS011;10495;50.922;4.760;2023-09-19T05:55:33;9.30;;;2.50;;
20671;SDS011;10495;50.922;4.760;2023-09-19T05:57:59;9.33;;;2.60;;
20671;SDS011;10495;50.922;4.760;2023-09-19T06:00:24;8.17;;;2.37;;
20671;SDS011;10495;50.922;4.760;2023-09-19T06:02:56;7.67;;;2.40;;
20671;SDS011;10495;50.922;4.760;2023-09-19T06:05:24;4.83;;;1.80;;
20671;SDS011;10495;50.922;4.760;2023-09-19T06:07:51;12.67;;;2.17;;
20671;SDS011;10495;50.922;4.760;2023-09-19T06:10:18;5.77;;;1.80;;
20671;SDS011;10495;50.922;4.760;2023-09-19T06:12:45;10.33;;;3.03;;
20671;SDS011;10495;50.922;4.760;2023-09-19T06:15:13;7.27;;;2.27;;
20671;SDS011;10495;50.922;4.760;2023-09-19T06:17:46;6.03;;;2.87;;
20671;SDS011;10495;50.922;4.760;2023-09-19T06:20:13;6.50;;;2.17;;
20671;SDS011;10495;50.922;4.760;2023-09-19T06:22:40;5.17;;;2.10;;
20671;SDS011;10495;50.922;4.760;2023-09-19T06:25:07;8.63;;;2.40;;
20671;SDS011;10495;50.922;4.760;2023-09-19T06:27:40;8.10;;;2.70;;
20671;SDS011;10495;50.922;4.760;2023-09-19T06:30:08;12.03;;;2.73;;
20671;SDS011;10495;50.922;4.760;2023-09-19T06:32:34;6.57;;;2.33;;
20671;SDS011;10495;50.922;4.760;2023-09-19T06:35:01;7.83;;;2.40;;
20671;SDS011;10495;50.922;4.760;2023-09-19T06:37:28;11.60;;;3.17;;
20671;SDS011;10495;50.922;4.760;2023-09-19T06:39:54;11.03;;;2.40;;
20671;SDS011;10495;50.922;4.760;2023-09-19T06:42:20;8.00;;;2.10;;
20671;SDS011;10495;50.922;4.760;2023-09-19T06:44:47;4.30;;;1.90;;
20671;SDS011;10495;50.922;4.760;2023-09-19T06:47:13;7.40;;;2.07;;
20671;SDS011;10495;50.922;4.760;2023-09-19T06:49:41;10.87;;;2.40;;
20671;SDS011;10495;50.922;4.760;2023-09-19T06:52:09;5.90;;;1.87;;
20671;SDS011;10495;50.922;4.760;2023-09-19T06:54:35;5.77;;;1.80;;
20671;SDS011;10495;50.922;4.760;2023-09-19T06:57:01;6.10;;;2.23;;
20671;SDS011;10495;50.922;4.760;2023-09-19T06:59:26;10.17;;;2.00;;
20671;SDS011;10495;50.922;4.760;2023-09-19T07:01:52;7.60;;;2.17;;
20671;SDS011;10495;50.922;4.760;2023-09-19T07:04:18;10.60;;;2.73;;
20671;SDS011;10495;50.922;4.760;2023-09-19T07:06:49;6.53;;;2.03;;
20671;SDS011;10495;50.922;4.760;2023-09-19T07:09:15;6.23;;;2.03;;
20671;SDS011;10495;50.922;4.760;2023-09-19T07:11:41;5.23;;;1.70;;
20671;SDS011;10495;50.922;4.760;2023-09-19T07:14:07;7.40;;;2.00;;
20671;SDS011;10495;50.922;4.760;2023-09-19T07:16:36;9.60;;;2.57;;
20671;SDS011;10495;50.922;4.760;2023-09-19T07:19:03;10.33;;;2.33;;
20671;SDS011;10495;50.922;4.760;2023-09-19T07:21:29;9.83;;;2.23;;
20671;SDS011;10495;50.922;4.760;2023-09-19T07:23:55;6.80;;;1.97;;
20671;SDS011;10495;50.922;4.760;2023-09-19T07:26:20;7.63;;;2.03;;
20671;SDS011;10495;50.922;4.760;2023-09-19T07:28:46;6.10;;;1.93;;
20671;SDS011;10495;50.922;4.760;2023-09-19T07:31:12;8.50;;;2.33;;
20671;SDS011;10495;50.922;4.760;2023-09-19T07:33:39;4.43;;;2.00;;
20671;SDS011;10495;50.922;4.760;2023-09-19T07:36:05;7.13;;;2.00;;
20671;SDS011;10495;50.922;4.760;2023-09-19T07:38:34;11.50;;;2.67;;
20671;SDS011;10495;50.922;4.760;2023-09-19T07:41:00;7.20;;;1.73;;
20671;SDS011;10495;50.922;4.760;2023-09-19T07:43:27;8.40;;;2.23;;
20671;SDS011;10495;50.922;4.760;2023-09-19T07:45:53;13.13;;;2.90;;
20671;SDS011;10495;50.922;4.760;2023-09-19T07:48:18;10.17;;;3.00;;
20671;SDS011;10495;50.922;4.760;2023-09-19T07:50:44;3.73;;;1.80;;
20671;SDS011;10495;50.922;4.760;2023-09-19T07:53:10;7.50;;;2.10;;
20671;SDS011;10495;50.922;4.760;2023-09-19T07:55:38;8.33;;;2.77;;
20671;SDS011;10495;50.922;4.760;2023-09-19T07:58:06;13.23;;;2.30;;
20671;SDS011;10495;50.922;4.760;2023-09-19T08:00:32;8.27;;;2.00;;
20671;SDS011;10495;50.922;4.760;2023-09-19T08:03:00;8.13;;;1.90;;
20671;SDS011;10495;50.922;4.760;2023-09-19T08:05:26;9.60;;;2.37;;
20671;SDS011;10495;50.922;4.760;2023-09-19T08:07:52;6.27;;;2.40;;
20671;SDS011;10495;50.922;4.760;2023-09-19T08:10:19;6.03;;;1.80;;
20671;SDS011;10495;50.922;4.760;2023-09-19T08:12:46;5.83;;;2.57;;
20671;SDS011;10495;50.922;4.760;2023-09-19T08:15:21;7.40;;;2.57;;
20671;SDS011;10495;50.922;4.760;2023-09-19T08:17:47;6.53;;;2.00;;
20671;SDS011;10495;50.922;4.760;2023-09-19T08:20:13;8.57;;;1.87;;
20671;SDS011;10495;50.922;4.760;2023-09-19T08:22:49;6.57;;;1.97;;
20671;SDS011;10495;50.922;4.760;2023-09-19T08:25:17;6.50;;;2.07;;
20671;SDS011;10495;50.922;4.760;2023-09-19T08:27:43;10.23;;;2.80;;
20671;SDS011;10495;50.922;4.760;2023-09-19T08:30:13;6.60;;;2.10;;
20671;SDS011;10495;50.922;4.760;2023-09-19T08:32:40;5.67;;;1.83;;
20671;SDS011;10495;50.922;4.760;2023-09-19T08:35:07;8.93;;;2.70;;
20671;SDS011;10495;50.922;4.760;2023-09-19T08:37:34;8.57;;;2.13;;
20671;SDS011;10495;50.922;4.760;2023-09-19T08:40:00;11.67;;;2.67;;
20671;SDS011;10495;50.922;4.760;2023-09-19T08:42:26;5.87;;;2.37;;
20671;SDS011;10495;50.922;4.760;2023-09-19T08:44:52;7.03;;;2.37;;
20671;SDS011;10495;50.922;4.760;2023-09-19T08:47:21;9.00;;;2.10;;
20671;SDS011;10495;50.922;4.760;2023-09-19T08:50:11;6.97;;;3.03;;
20671;SDS011;10495;50.922;4.760;2023-09-19T08:52:49;8.03;;;2.20;;
20671;SDS011;10495;50.922;4.760;2023-09-19T08:55:19;10.73;;;2.10;;
20671;SDS011;10495;50.922;4.760;2023-09-19T08:57:48;9.13;;;2.50;;
20671;SDS011;10495;50.922;4.760;2023-09-19T09:00:15;13.07;;;2.60;;
20671;SDS011;10495;50.922;4.760;2023-09-19T09:02:43;12.33;;;2.73;;
20671;SDS011;10495;50.922;4.760;2023-09-19T09:05:10;5.90;;;2.20;;
20671;SDS011;10495;50.922;4.760;2023-09-19T09:07:37;7.97;;;1.90;;
20671;SDS011;10495;50.922;4.760;2023-09-19T09:10:03;6.80;;;2.70;;
20671;SDS011;10495;50.922;4.760;2023-09-19T09:12:30;7.67;;;1.57;;
20671;SDS011;10495;50.922;4.760;2023-09-19T09:14:56;5.55;;;1.55;;
20671;SDS011;10495;50.922;4.760;2023-09-19T09:17:22;6.72;;;2.30;;
20671;SDS011;10495;50.922;4.760;2023-09-19T09:19:49;7.10;;;1.88;;
20671;SDS011;10495;50.922;4.760;2023-09-19T09:22:18;6.57;;;2.10;;
20671;SDS011;10495;50.922;4.760;2023-09-19T09:27:29;9.35;;;2.17;;
20671;SDS011;10495;50.922;4.760;2023-09-19T09:29:54;6.43;;;1.92;;
20671;SDS011;10495;50.922;4.760;2023-09-19T09:32:21;5.85;;;2.05;;
20671;SDS011;10495;50.922;4.760;2023-09-19T09:34:49;6.72;;;2.10;;
20671;SDS011;10495;50.922;4.760;2023-09-19T09:37:19;8.20;;;1.98;;
20671;SDS011;10495;50.922;4.760;2023-09-19T09:39:59;6.93;;;2.53;;
20671;SDS011;10495;50.922;4.760;2023-09-19T09:42:44;6.10;;;2.05;;
20671;SDS011;10495;50.922;4.760;2023-09-19T09:45:21;5.70;;;2.45;;
20671;SDS011;10495;50.922;4.760;2023-09-19T09:48:02;10.00;;;2.13;;
20671;SDS011;10495;50.922;4.760;2023-09-19T09:50:29;8.20;;;2.25;;
20671;SDS011;10495;50.922;4.760;2023-09-19T09:53:24;5.30;;;2.00;;
20671;SDS011;10495;50.922;4.760;2023-09-19T09:56:03;9.40;;;1.90;;
20671;SDS011;10495;50.922;4.760;2023-09-19T09:58:34;5.93;;;2.15;;
20671;SDS011;10495;50.922;4.760;2023-09-19T10:01:01;7.05;;;2.15;;
20671;SDS011;10495;50.922;4.760;2023-09-19T10:03:37;8.03;;;2.03;;
20671;SDS011;10495;50.922;4.760;2023-09-19T10:06:14;6.93;;;2.20;;
20671;SDS011;10495;50.922;4.760;2023-09-19T10:11:35;5.87;;;1.83;;
20671;SDS011;10495;50.922;4.760;2023-09-19T10:14:04;4.82;;;1.75;;
20671;SDS011;10495;50.922;4.760;2023-09-19T10:16:34;5.47;;;1.80;;
20671;SDS011;10495;50.922;4.760;2023-09-19T10:19:03;6.65;;;2.50;;
20671;SDS011;10495;50.922;4.760;2023-09-19T10:21:34;6.23;;;2.37;;
20671;SDS011;10495;50.922;4.760;2023-09-19T10:24:02;7.00;;;1.50;;
20671;SDS011;10495;50.922;4.760;2023-09-19T10:26:32;4.30;;;1.30;;
20671;SDS011;10495;50.922;4.760;2023-09-19T10:29:01;5.03;;;1.80;;
20671;SDS011;10495;50.922;4.760;2023-09-19T10:31:32;6.80;;;1.63;;
20671;SDS011;10495;50.922;4.760;2023-09-19T10:34:00;5.43;;;1.43;;
20671;SDS011;10495;50.922;4.760;2023-09-19T10:36:30;6.00;;;1.33;;
20671;SDS011;10495;50.922;4.760;2023-09-19T10:39:01;8.60;;;1.80;;
20671;SDS011;10495;50.922;4.760;2023-09-19T10:41:31;5.87;;;1.73;;
20671;SDS011;10495;50.922;4.760;2023-09-19T10:44:02;3.83;;;1.40;;
20671;SDS011;10495;50.922;4.760;2023-09-19T10:46:30;6.23;;;1.50;;
20671;SDS011;10495;50.922;4.760;2023-09-19T10:49:00;5.63;;;1.47;;
20671;SDS011;10495;50.922;4.760;2023-09-19T10:51:31;4.47;;;1.50;;
20671;SDS011;10495;50.922;4.760;2023-09-19T10:54:06;4.13;;;1.40;;
20671;SDS011;10495;50.922;4.760;2023-09-19T10:56:38;5.63;;;1.70;;
20671;SDS011;10495;50.922;4.760;2023-09-19T10:59:17;6.50;;;1.50;;
20671;SDS011;10495;50.922;4.760;2023-09-19T11:01:44;7.13;;;1.90;;
20671;SDS011;10495;50.922;4.760;2023-09-19T11:04:22;3.00;;;1.20;;
20671;SDS011;10495;50.922;4.760;2023-09-19T11:09:46;3.40;;;1.40;;
20671;SDS011;10495;50.922;4.760;2023-09-19T11:12:12;3.20;;;1.23;;
20671;SDS011;10495;50.922;4.760;2023-09-19T11:15:06;6.20;;;1.60;;
20671;SDS011;10495;50.922;4.760;2023-09-19T11:33:16;4.40;;;1.50;;
20671;SDS011;10495;50.922;4.760;2023-09-19T11:43:51;3.13;;;1.33;;
20671;SDS011;10495;50.922;4.760;2023-09-19T11:46:29;4.80;;;1.53;;
20671;SDS011;10495;50.922;4.760;2023-09-19T11:49:04;8.77;;;1.25;;
20671;SDS011;10495;50.922;4.760;2023-09-19T11:51:40;2.47;;;0.93;;
20671;SDS011;10495;50.922;4.760;2023-09-19T11:54:11;1.60;;;0.90;;
20671;SDS011;10495;50.922;4.760;2023-09-19T11:56:48;2.40;;;1.08;;
20671;SDS011;10495;50.922;4.760;2023-09-19T11:59:30;4.82;;;1.55;;
20671;SDS011;10495;50.922;4.760;2023-09-19T12:02:00;5.80;;;1.27;;
20671;SDS011;10495;50.922;4.760;2023-09-19T12:09:31;3.97;;;1.20;;
20671;SDS011;10495;50.922;4.760;2023-09-19T12:11:57;4.10;;;1.00;;
20671;SDS011;10495;50.922;4.760;2023-09-19T12:14:23;4.17;;;1.13;;
20671;SDS011;10495;50.922;4.760;2023-09-19T12:16:54;3.23;;;0.93;;
20671;SDS011;10495;50.922;4.760;2023-09-19T12:19:21;5.20;;;1.20;;
20671;SDS011;10495;50.922;4.760;2023-09-19T12:21:55;3.60;;;1.10;;
20671;SDS011;10495;50.922;4.760;2023-09-19T12:24:27;2.83;;;1.07;;
20671;SDS011;10495;50.922;4.760;2023-09-19T12:26:59;5.80;;;1.17;;
20671;SDS011;10495;50.922;4.760;2023-09-19T12:29:47;2.47;;;1.13;;
20671;SDS011;10495;50.922;4.760;2023-09-19T12:32:14;3.67;;;0.87;;
20671;SDS011;10495;50.922;4.760;2023-09-19T12:34:42;4.93;;;0.90;;
20671;SDS011;10495;50.922;4.760;2023-09-19T12:39:41;6.07;;;1.30;;
20671;SDS011;10495;50.922;4.760;2023-09-19T12:42:09;1.95;;;0.90;;
20671;SDS011;10495;50.922;4.760;2023-09-19T12:44:36;3.20;;;0.95;;
20671;SDS011;10495;50.922;4.760;2023-09-19T12:47:15;3.07;;;0.93;;
20671;SDS011;10495;50.922;4.760;2023-09-19T12:52:43;3.70;;;1.13;;
20671;SDS011;10495;50.922;4.760;2023-09-19T12:55:22;4.83;;;1.10;;
20671;SDS011;10495;50.922;4.760;2023-09-19T12:57:55;2.43;;;1.33;;
20671;SDS011;10495;50.922;4.760;2023-09-19T13:03:14;6.73;;;1.00;;
20671;SDS011;10495;50.922;4.760;2023-09-19T13:13:42;2.33;;;0.80;;
20671;SDS011;10495;50.922;4.760;2023-09-19T13:16:16;3.22;;;1.10;;
20671;SDS011;10495;50.922;4.760;2023-09-19T13:18:48;1.85;;;0.98;;
20671;SDS011;10495;50.922;4.760;2023-09-19T13:21:28;2.72;;;1.05;;
20671;SDS011;10495;50.922;4.760;2023-09-19T13:24:21;3.07;;;1.10;;
20671;SDS011;10495;50.922;4.760;2023-09-19T13:26:50;3.50;;;1.10;;
20671;SDS011;10495;50.922;4.760;2023-09-19T13:29:16;2.90;;;0.93;;
20671;SDS011;10495;50.922;4.760;2023-09-19T13:31:49;4.18;;;1.00;;
20671;SDS011;10495;50.922;4.760;2023-09-19T13:34:18;3.28;;;1.20;;
20671;SDS011;10495;50.922;4.760;2023-09-19T13:36:44;5.38;;;1.27;;
20671;SDS011;10495;50.922;4.760;2023-09-19T13:39:13;1.63;;;0.90;;
20671;SDS011;10495;50.922;4.760;2023-09-19T13:41:44;3.53;;;1.30;;
20671;SDS011;10495;50.922;4.760;2023-09-19T13:44:11;3.33;;;1.20;;
20671;SDS011;10495;50.922;4.760;2023-09-19T13:46:37;2.80;;;1.00;;
20671;SDS011;10495;50.922;4.760;2023-09-19T13:49:03;2.43;;;0.80;;
20671;SDS011;10495;50.922;4.760;2023-09-19T13:51:30;6.37;;;1.80;;
20671;SDS011;10495;50.922;4.760;2023-09-19T13:53:56;5.47;;;1.73;;
20671;SDS011;10495;50.922;4.760;2023-09-19T13:56:22;2.60;;;1.10;;
20671;SDS011;10495;50.922;4.760;2023-09-19T13:58:48;8.03;;;1.33;;
20671;SDS011;10495;50.922;4.760;2023-09-19T14:01:13;2.27;;;0.90;;
20671;SDS011;10495;50.922;4.760;2023-09-19T14:03:39;1.98;;;1.02;;
20671;SDS011;10495;50.922;4.760;2023-09-19T14:06:06;3.53;;;1.00;;
20671;SDS011;10495;50.922;4.760;2023-09-19T14:08:31;4.55;;;1.00;;
20671;SDS011;10495;50.922;4.760;2023-09-19T14:10:59;2.53;;;0.97;;
20671;SDS011;10495;50.922;4.760;2023-09-19T14:13:30;4.33;;;1.27;;
20671;SDS011;10495;50.922;4.760;2023-09-19T14:15:55;3.03;;;1.40;;
20671;SDS011;10495;50.922;4.760;2023-09-19T14:18:21;3.07;;;1.53;;
20671;SDS011;10495;50.922;4.760;2023-09-19T14:20:47;4.50;;;1.33;;
20671;SDS011;10495;50.922;4.760;2023-09-19T14:23:12;2.78;;;0.98;;
20671;SDS011;10495;50.922;4.760;2023-09-19T14:25:38;4.80;;;1.48;;
20671;SDS011;10495;50.922;4.760;2023-09-19T14:28:04;5.70;;;1.40;;
20671;SDS011;10495;50.922;4.760;2023-09-19T14:30:32;4.27;;;1.30;;
20671;SDS011;10495;50.922;4.760;2023-09-19T14:32:58;1.53;;;0.90;;
20671;SDS011;10495;50.922;4.760;2023-09-19T14:35:24;4.63;;;1.20;;
20671;SDS011;10495;50.922;4.760;2023-09-19T14:37:50;3.13;;;1.75;;
20671;SDS011;10495;50.922;4.760;2023-09-19T14:40:16;6.10;;;1.45;;
20671;SDS011;10495;50.922;4.760;2023-09-19T14:42:43;6.20;;;1.43;;
20671;SDS011;10495;50.922;4.760;2023-09-19T14:45:10;4.03;;;1.40;;
20671;SDS011;10495;50.922;4.760;2023-09-19T14:47:36;3.53;;;1.17;;
20671;SDS011;10495;50.922;4.760;2023-09-19T14:50:02;3.35;;;1.23;;
20671;SDS011;10495;50.922;4.760;2023-09-19T14:52:31;4.43;;;1.33;;
20671;SDS011;10495;50.922;4.760;2023-09-19T14:55:01;6.20;;;1.15;;
20671;SDS011;10495;50.922;4.760;2023-09-19T14:57:27;2.00;;;1.10;;
20671;SDS011;10495;50.922;4.760;2023-09-19T14:59:52;4.38;;;1.30;;
20671;SDS011;10495;50.922;4.760;2023-09-19T15:02:19;7.10;;;1.40;;
20671;SDS011;10495;50.922;4.760;2023-09-19T15:04:45;4.05;;;1.50;;
20671;SDS011;10495;50.922;4.760;2023-09-19T15:07:13;2.17;;;1.30;;
20671;SDS011;10495;50.922;4.760;2023-09-19T15:09:40;4.85;;;1.10;;
20671;SDS011;10495;50.922;4.760;2023-09-19T15:12:09;6.70;;;1.40;;
20671;SDS011;10495;50.922;4.760;2023-09-19T15:14:39;4.53;;;1.50;;
20671;SDS011;10495;50.922;4.760;2023-09-19T15:17:05;2.53;;;1.23;;
20671;SDS011;10495;50.922;4.760;2023-09-19T15:19:31;3.57;;;1.40;;
20671;SDS011;10495;50.922;4.760;2023-09-19T15:21:57;7.85;;;2.40;;
20671;SDS011;10495;50.922;4.760;2023-09-19T15:24:23;4.93;;;1.50;;
20671;SDS011;10495;50.922;4.760;2023-09-19T15:26:51;5.85;;;1.52;;
20671;SDS011;10495;50.922;4.760;2023-09-19T15:29:17;3.05;;;1.13;;
20671;SDS011;10495;50.922;4.760;2023-09-19T15:31:45;6.40;;;1.67;;
20671;SDS011;10495;50.922;4.760;2023-09-19T15:34:10;2.73;;;1.27;;
20671;SDS011;10495;50.922;4.760;2023-09-19T15:36:39;5.28;;;1.65;;
20671;SDS011;10495;50.922;4.760;2023-09-19T15:39:07;6.18;;;1.52;;
20671;SDS011;10495;50.922;4.760;2023-09-19T15:41:39;3.50;;;1.53;;
20671;SDS011;10495;50.922;4.760;2023-09-19T15:44:12;2.77;;;1.53;;
20671;SDS011;10495;50.922;4.760;2023-09-19T15:46:44;2.70;;;1.50;;
20671;SDS011;10495;50.922;4.760;2023-09-19T15:49:10;4.97;;;1.60;;
20671;SDS011;10495;50.922;4.760;2023-09-19T15:51:36;8.52;;;1.55;;
20671;SDS011;10495;50.922;4.760;2023-09-19T15:54:24;6.90;;;1.80;;
20671;SDS011;10495;50.922;4.760;2023-09-19T15:56:50;4.35;;;1.35;;
20671;SDS011;10495;50.922;4.760;2023-09-19T15:59:16;4.00;;;1.27;;
20671;SDS011;10495;50.922;4.760;2023-09-19T16:01:42;3.75;;;1.30;;
20671;SDS011;10495;50.922;4.760;2023-09-19T16:04:09;4.40;;;1.50;;
20671;SDS011;10495;50.922;4.760;2023-09-19T16:06:35;4.70;;;1.80;;